createdAt,value
2018-06-02T00:02:04.000Z,99953.18
2018-06-02T00:06:06.482Z,99946.56
2018-06-02T00:10:08.968Z,99950.66
2018-06-02T00:14:11.449Z,99943.05
2018-06-02T00:18:13.934Z,99944.59
2018-06-02T00:22:16.413Z,99938.84
2018-06-02T00:26:18.893Z,99926.52
2018-06-02T00:30:21.375Z,99919.14
2018-06-02T00:34:23.836Z,99918.44
2018-06-02T00:38:26.323Z,99925.77
2018-06-02T00:42:28.818Z,99928.09
2018-06-02T00:46:31.276Z,99933.61
2018-06-02T00:50:33.770Z,99929.81
2018-06-02T00:54:48.035Z,99926.90
2018-06-02T00:58:50.533Z,99930.70
2018-06-02T01:02:53.009Z,99924.72
2018-06-02T01:06:55.496Z,99924.50
2018-06-02T01:10:57.951Z,99923.25
2018-06-02T01:15:00.439Z,99920.57
2018-06-02T01:19:02.899Z,99918.41
2018-06-02T01:23:05.390Z,99919.25
2018-06-02T01:27:07.879Z,99928.21
2018-06-02T01:31:10.334Z,99923.95
2018-06-02T01:35:12.816Z,99917.50
2018-06-02T01:39:15.292Z,99907.51
2018-06-02T01:43:17.775Z,99905.81
2018-06-02T01:47:20.240Z,99909.48
2018-06-02T01:51:22.719Z,99911.25
2018-06-02T01:55:25.205Z,99911.71
2018-06-02T01:59:27.721Z,99909.91
2018-06-02T02:03:30.176Z,99916.36
2018-06-02T02:07:32.659Z,99911.49
2018-06-02T02:11:35.143Z,99916.91
2018-06-02T02:15:37.626Z,99922.75
2018-06-02T02:19:40.108Z,99919.16
2018-06-02T02:23:42.597Z,99919.17
2018-06-02T02:27:45.051Z,99914.77
2018-06-02T02:31:47.540Z,99918.38
2018-06-02T02:35:50.037Z,99916.67
2018-06-02T02:39:52.528Z,99924.30
2018-06-02T02:43:54.973Z,99926.13
2018-06-02T02:47:57.459Z,99922.16
2018-06-02T02:51:59.917Z,99916.44
2018-06-02T02:56:02.397Z,99922.34
2018-06-02T03:00:04.887Z,99928.63
2018-06-02T03:04:07.378Z,99920.68
2018-06-02T03:08:09.866Z,99924.30
2018-06-02T03:12:12.347Z,99923.42
2018-06-02T03:16:14.831Z,99927.96
2018-06-02T03:20:17.286Z,99925.33
2018-06-02T03:24:19.763Z,99920.07
2018-06-02T03:28:22.250Z,99918.88
2018-06-02T03:32:24.735Z,99922.16
2018-06-02T03:36:28.079Z,99927.08
2018-06-02T03:40:30.560Z,99943.17
2018-06-02T03:44:33.048Z,99941.09
2018-06-02T03:48:35.544Z,99949.69
2018-06-02T03:52:37.994Z,99943.52
2018-06-02T03:56:40.462Z,99945.73
2018-06-02T04:00:42.933Z,99941.70
2018-06-02T04:04:45.418Z,99944.38
2018-06-02T04:08:47.914Z,99943.36
2018-06-02T04:12:50.385Z,99946.34
2018-06-02T04:16:52.878Z,99937.70
2018-06-02T04:20:55.362Z,99941.53
2018-06-02T04:24:57.847Z,99945.03
2018-06-02T04:29:00.304Z,99947.63
2018-06-02T04:33:02.795Z,99947.59
2018-06-02T04:37:05.278Z,99952.03
2018-06-02T04:41:07.733Z,99953.15
2018-06-02T04:45:10.220Z,99956.55
2018-06-02T04:49:12.716Z,99963.83
2018-06-02T04:53:15.167Z,99970.22
2018-06-02T04:57:17.655Z,99966.69
2018-06-02T05:01:20.106Z,99964.47
2018-06-02T05:05:22.580Z,99971.17
2018-06-02T05:09:25.064Z,99972.30
2018-06-02T05:13:27.547Z,99969.78
2018-06-02T05:17:30.029Z,99977.00
2018-06-02T05:21:32.508Z,99972.70
2018-06-02T05:25:34.991Z,99973.54
2018-06-02T05:29:37.470Z,99971.23
2018-06-02T05:33:39.965Z,99971.41
2018-06-02T05:37:42.463Z,99973.88
2018-06-02T05:41:44.918Z,99978.11
2018-06-02T05:45:47.400Z,99972.84
2018-06-02T05:49:49.894Z,99979.44
2018-06-02T05:53:52.370Z,99981.00
2018-06-02T05:57:54.861Z,99977.25
2018-06-02T06:01:57.326Z,99979.63
2018-06-02T06:05:59.822Z,99981.12
2018-06-02T06:10:02.314Z,99992.47
2018-06-02T06:14:04.774Z,99989.54
2018-06-02T06:18:07.265Z,99982.66
2018-06-02T06:22:09.715Z,99985.00
2018-06-02T06:26:12.201Z,99988.57
2018-06-02T06:30:14.689Z,99985.63
2018-06-02T06:34:17.160Z,99984.94
2018-06-02T06:38:19.643Z,99983.64
2018-06-02T06:42:22.110Z,99983.28
2018-06-02T06:46:24.598Z,99985.83
2018-06-02T06:50:27.080Z,99977.23
2018-06-02T06:54:29.571Z,99981.52
2018-06-02T06:58:32.058Z,99975.63
2018-06-02T07:02:34.512Z,99974.09
2018-06-02T07:06:36.990Z,99973.02
2018-06-02T07:10:39.483Z,99970.63
2018-06-02T07:14:41.970Z,99975.34
2018-06-02T07:18:44.458Z,99974.01
2018-06-02T07:22:46.942Z,99978.77
2018-06-02T07:26:49.438Z,99974.69
2018-06-02T07:30:52.006Z,99964.89
2018-06-02T07:34:54.492Z,99961.67
2018-06-02T07:38:56.953Z,99962.17
2018-06-02T07:42:59.434Z,99964.73
2018-06-02T07:47:01.927Z,99964.31
2018-06-02T07:51:04.390Z,99976.20
2018-06-02T07:55:06.889Z,99972.73
2018-06-02T07:59:09.373Z,99969.66
2018-06-02T08:03:11.842Z,99978.86
2018-06-02T08:07:14.326Z,99986.86
2018-06-02T08:11:16.809Z,99989.67
2018-06-02T08:15:19.298Z,99992.84
2018-06-02T08:19:21.778Z,99999.61
2018-06-02T08:23:24.276Z,100005.98
2018-06-02T08:27:26.754Z,100009.34
2018-06-02T08:31:29.220Z,100008.25
2018-06-02T08:35:31.703Z,100005.32
2018-06-02T08:39:34.201Z,100002.61
2018-06-02T08:43:36.691Z,100010.47
2018-06-02T08:47:39.157Z,100010.08
2018-06-02T08:51:41.642Z,100017.73
2018-06-02T08:55:45.051Z,100024.75
2018-06-02T08:59:47.539Z,100013.87
2018-06-02T09:03:50.041Z,100015.38
2018-06-02T09:07:52.517Z,100021.77
2018-06-02T09:11:55.002Z,100009.25
2018-06-02T09:15:57.490Z,100021.19
2018-06-02T09:19:59.972Z,100018.61
2018-06-02T09:24:02.488Z,100006.77
2018-06-02T09:28:04.978Z,100004.69
2018-06-02T09:32:07.435Z,100002.19
2018-06-02T09:36:10.888Z,100001.66
2018-06-02T09:40:13.374Z,100007.77
2018-06-02T09:44:15.887Z,100002.69
2018-06-02T09:48:18.343Z,99989.63
2018-06-02T09:52:20.833Z,99980.34
2018-06-02T09:56:23.287Z,99979.30
2018-06-02T10:00:25.784Z,99970.24
2018-06-02T10:04:28.284Z,99972.89
2018-06-02T10:08:30.774Z,99960.77
2018-06-02T10:12:33.234Z,99960.70
2018-06-02T10:16:35.722Z,99964.94
2018-06-02T10:20:38.224Z,99964.98
2018-06-02T10:24:40.773Z,99967.02
2018-06-02T10:28:43.280Z,99964.95
2018-06-02T10:32:45.741Z,99956.92
2018-06-02T10:36:48.231Z,99964.20
2018-06-02T10:40:50.699Z,99957.30
2018-06-02T10:44:53.183Z,99948.37
2018-06-02T10:48:55.679Z,99953.35
2018-06-02T10:52:58.182Z,99966.55
2018-06-02T10:57:00.675Z,99960.14
2018-06-02T11:01:03.166Z,99961.33
2018-06-02T11:05:05.621Z,99966.62
2018-06-02T11:09:08.147Z,99959.18
2018-06-02T11:13:10.570Z,99964.37
2018-06-02T11:17:13.056Z,99963.12
2018-06-02T11:21:15.542Z,99963.09
2018-06-02T11:25:18.019Z,99964.20
2018-06-02T11:29:20.510Z,99955.09
2018-06-02T11:33:22.966Z,99955.66
2018-06-02T11:37:25.449Z,99946.16
2018-06-02T11:41:27.927Z,99945.27
2018-06-02T11:45:30.418Z,99945.05
2018-06-02T11:49:32.882Z,99946.71
2018-06-02T11:53:35.365Z,99941.36
2018-06-02T11:57:37.852Z,99939.22
2018-06-02T12:01:40.328Z,99928.55
2018-06-02T12:05:42.812Z,99926.59
2018-06-02T12:09:45.299Z,99923.05
2018-06-02T12:13:47.785Z,99927.02
2018-06-02T12:17:50.261Z,99916.48
2018-06-02T12:21:52.714Z,99913.73
2018-06-02T12:25:55.189Z,99903.11
2018-06-02T12:29:57.674Z,99902.93
2018-06-02T12:34:00.164Z,99913.23
2018-06-02T12:38:02.621Z,99901.19
2018-06-02T12:42:05.097Z,99901.14
2018-06-02T12:46:08.558Z,99892.33
2018-06-02T12:50:11.019Z,99885.06
2018-06-02T12:54:13.515Z,99890.11
2018-06-02T12:58:16.002Z,99880.17
2018-06-02T13:02:18.477Z,99875.80
2018-06-02T13:06:20.956Z,99875.05
2018-06-02T13:10:23.443Z,99879.70
2018-06-02T13:14:25.939Z,99868.48
2018-06-02T13:18:28.395Z,99867.84
2018-06-02T13:22:30.867Z,99871.40
2018-06-02T13:26:33.355Z,99870.53
2018-06-02T13:30:35.842Z,99859.65
2018-06-02T13:34:38.330Z,99858.64
2018-06-02T13:38:40.791Z,99859.05
2018-06-02T13:42:43.285Z,99861.45
2018-06-02T13:46:45.764Z,99853.09
2018-06-02T13:50:48.282Z,99860.43
2018-06-02T13:54:50.787Z,99853.57
2018-06-02T13:58:53.240Z,99848.79
2018-06-02T14:02:55.726Z,99850.17
2018-06-02T14:06:58.209Z,99845.64
2018-06-02T14:11:00.695Z,99839.77
2018-06-02T14:15:03.179Z,99831.55
2018-06-02T14:19:05.634Z,99827.63
2018-06-02T14:23:08.375Z,99823.58
2018-06-02T14:27:10.855Z,99811.53
2018-06-02T14:31:13.339Z,99800.28
2018-06-02T14:35:15.816Z,99804.56
2018-06-02T14:39:18.296Z,99794.93
2018-06-02T14:43:20.816Z,99797.36
2018-06-02T14:47:23.269Z,99793.33
2018-06-02T14:51:25.798Z,99793.30
2018-06-02T14:55:28.259Z,99786.97
2018-06-02T14:59:30.758Z,99780.13
2018-06-02T15:03:33.268Z,99787.59
2018-06-02T15:07:35.769Z,99773.97
2018-06-02T15:11:38.290Z,99771.66
2018-06-02T15:15:40.782Z,99767.49
2018-06-02T15:19:43.282Z,99769.29
2018-06-02T15:23:45.781Z,99772.08
2018-06-02T15:27:48.277Z,99771.49
2018-06-02T15:31:50.769Z,99768.57
2018-06-02T15:35:53.252Z,99761.31
2018-06-02T15:39:55.711Z,99755.03
2018-06-02T15:43:58.195Z,99749.09
2018-06-02T15:48:00.685Z,99757.03
2018-06-02T15:52:03.162Z,99750.23
2018-06-02T15:56:07.146Z,99748.63
2018-06-02T16:00:09.664Z,99746.67
2018-06-02T16:04:12.149Z,99748.45
2018-06-02T16:08:14.647Z,99755.44
2018-06-02T16:12:17.129Z,99758.14
2018-06-02T16:16:19.617Z,99764.87
2018-06-02T16:20:22.102Z,99766.59
2018-06-02T16:24:24.577Z,99777.25
2018-06-02T16:28:27.036Z,99777.00
2018-06-02T16:32:29.527Z,99782.52
2018-06-02T16:36:32.000Z,99788.33
2018-06-02T16:40:34.486Z,99793.31
2018-06-02T16:44:36.954Z,99782.00
2018-06-02T16:48:39.471Z,99784.38
2018-06-02T16:52:41.961Z,99776.91
2018-06-02T16:56:44.472Z,99773.48
2018-06-02T17:00:46.986Z,99775.41
2018-06-02T17:04:49.481Z,99772.87
2018-06-02T17:08:51.980Z,99774.81
2018-06-02T17:12:54.466Z,99761.87
2018-06-02T17:16:56.923Z,99760.36
2018-06-02T17:20:59.399Z,99760.00
2018-06-02T17:25:01.855Z,99755.05
2018-06-02T17:29:04.336Z,99742.59
2018-06-02T17:33:06.824Z,99745.45
2018-06-02T17:37:09.280Z,99746.03
2018-06-02T17:41:11.774Z,99751.83
2018-06-02T17:45:14.246Z,99757.34
2018-06-02T17:49:16.731Z,99762.00
2018-06-02T17:53:19.217Z,99769.91
2018-06-02T17:57:21.710Z,99772.11
2018-06-02T18:01:24.218Z,99776.83
2018-06-02T18:05:26.702Z,99778.92
2018-06-02T18:09:29.189Z,99772.02
2018-06-02T18:13:31.770Z,99773.36
2018-06-02T18:17:34.245Z,99779.09
2018-06-02T18:21:36.735Z,99776.67
2018-06-02T18:25:39.203Z,99775.16
2018-06-02T18:29:41.700Z,99783.92
2018-06-02T18:33:44.191Z,99784.19
2018-06-02T18:37:46.691Z,99784.52
2018-06-02T18:41:49.151Z,99783.84
2018-06-02T18:45:51.643Z,99783.73
2018-06-02T18:49:54.141Z,99774.23
2018-06-02T18:53:56.626Z,99784.88
2018-06-02T18:57:59.117Z,99784.73
2018-06-02T19:02:01.603Z,99801.69
2018-06-02T19:06:04.082Z,99803.61
2018-06-02T19:10:06.699Z,99814.55
2018-06-02T19:14:09.210Z,99833.22
2018-06-02T19:18:11.658Z,99843.91
2018-06-02T19:22:14.140Z,99849.00
2018-06-02T19:26:16.603Z,99862.51
2018-06-02T19:30:19.095Z,99871.81
2018-06-02T19:34:21.555Z,99868.62
2018-06-02T19:38:24.033Z,99874.61
2018-06-02T19:42:26.519Z,99888.72
2018-06-02T19:46:29.007Z,99884.89
2018-06-02T19:50:31.503Z,99890.02
2018-06-02T19:54:34.037Z,99887.83
2018-06-02T19:58:36.542Z,99894.48
2018-06-02T20:02:39.010Z,99898.88
2018-06-02T20:06:41.532Z,99896.64
2018-06-02T20:10:44.015Z,99893.48
2018-06-02T20:14:46.528Z,99890.42
2018-06-02T20:18:49.010Z,99894.45
2018-06-02T20:22:51.474Z,99884.20
2018-06-02T20:26:53.956Z,99878.95
2018-06-02T20:30:56.441Z,99884.63
2018-06-02T20:34:58.926Z,99880.74
2018-06-02T20:39:01.422Z,99876.11
2018-06-02T20:43:03.911Z,99873.76
2018-06-02T20:47:06.416Z,99869.95
2018-06-02T20:51:08.895Z,99865.70
2018-06-02T20:55:11.382Z,99851.13
2018-06-02T20:59:13.841Z,99849.00
2018-06-02T21:03:16.337Z,99846.02
2018-06-02T21:07:18.833Z,99838.55
2018-06-02T21:11:21.320Z,99839.17
2018-06-02T21:15:23.789Z,99836.63
2018-06-02T21:19:26.268Z,99835.39
2018-06-02T21:23:28.755Z,99830.57
2018-06-02T21:27:31.271Z,99843.27
2018-06-02T21:31:33.752Z,99843.77
2018-06-02T21:35:36.236Z,99847.45
2018-06-02T21:39:38.717Z,99846.16
2018-06-02T21:43:41.210Z,99852.61
2018-06-02T21:47:43.680Z,99854.05
2018-06-02T21:51:46.167Z,99858.63
2018-06-02T21:55:48.628Z,99864.58
2018-06-02T21:59:51.126Z,99870.39
2018-06-02T22:03:53.604Z,99871.44
2018-06-02T22:07:56.087Z,99864.81
2018-06-02T22:11:58.574Z,99868.26
2018-06-02T22:16:01.085Z,99871.53
2018-06-02T22:20:03.578Z,99869.39
2018-06-02T22:24:06.055Z,99878.52
2018-06-02T22:28:08.544Z,99878.52
2018-06-02T22:32:11.021Z,99884.41
2018-06-02T22:36:13.520Z,99884.17
2018-06-02T22:40:15.995Z,99885.23
2018-06-02T22:44:18.481Z,99883.22
2018-06-02T22:48:20.952Z,99895.59
2018-06-02T22:52:23.450Z,99892.55
2018-06-02T22:56:25.930Z,99898.42
2018-06-02T23:00:28.499Z,99906.22
2018-06-02T23:04:31.053Z,99896.95
2018-06-02T23:08:33.541Z,99894.35
2018-06-02T23:12:36.016Z,99892.65
2018-06-02T23:16:38.501Z,99892.65
2018-06-02T23:20:40.950Z,99886.00
2018-06-02T23:24:43.431Z,99887.52
2018-06-02T23:28:45.917Z,99886.87
2018-06-02T23:32:48.402Z,99885.69
2018-06-02T23:36:50.881Z,99890.25
2018-06-02T23:40:53.366Z,99895.28
2018-06-02T23:44:55.858Z,99890.23
2018-06-02T23:48:58.342Z,99884.76
2018-06-02T23:53:00.815Z,99895.64
2018-06-02T23:57:03.309Z,99896.69
